REL weather

Almirante Marco Andres Zar Airport
Rawson, Chubut Province, Argentina

Public forecast

Using degrees Celsius for public forecast. Weather courtesy of forecast.io.

Current aviation weather report (METAR) for Almirante Marco Andres Zar Airport

Report is more than 6 hours old.

Retrieved 2020/05/30 04:27 UTC (3 days ago):

SAVT 300427Z VRB03KT 9999 DZ BKN015 SCT080 07/06 Q1026

Aviation forecast (TAF) for Almirante Marco Andres Zar Airport

Forecast is more than 12 hours old.

Retrieved 2019/04/29 06:29 UTC (1 year ago):

TAF SAVT 290500Z 2906/3006 29015KT CAVOK TX16/2919Z TN07/3006Z BECMG 2908/2910 25025G35KT SCT015 BKNK030 TEMPO 2911/2914 7000 -SHRA OVC020 SCT030 BECMG 3002/3004 25015KT